Time,TemperatureF,DewpointF,PressureIn,WindDirection,WindDirectionDegrees,WindSpeedMPH,WindSpeedGustMPH,Humidity,HourlyPrecipIn,Conditions,Clouds,dailyrainin,SoftwareType,DateUTC
2013-08-21 00:01:00,66.2,65.3,28.79,SE,135,0.0,0.0,97,0.00,CLR,SKC,0.00,WeatherDisplay:10.37,2013-08-21 04:01:00,
2013-08-21 00:02:00,66.2,65.3,28.80,SE,135,0.0,0.0,97,0.00,CLR,SKC,0.00,WeatherDisplay:10.37,2013-08-21 04:02:00,
2013-08-21 00:03:00,66.2,65.3,28.80,SE,135,0.0,0.0,97,0.00,CLR,SKC,0.00,WeatherDisplay:10.37,2013-08-21 04:03:00,
2013-08-21 00:07:00,66.2,65.3,28.79,SE,135,0.0,0.0,97,0.00,CLR,SKC,0.00,WeatherDisplay:10.37,2013-08-21 04:07:00,
2013-08-21 00:12:00,66.2,65.0,28.80,SE,135,0.0,0.0,96,0.00,CLR,SKC,0.00,WeatherDisplay:10.37,2013-08-21 04:12:00,
2013-08-21 00:17:00,66.2,65.0,28.80,SE,135,1.2,0.0,96,0.00,CLR,SKC,0.00,WeatherDisplay:10.37,2013-08-21 04:17:00,
2013-08-21 00:22:00,66.4,65.2,28.80,SE,135,0.0,0.0,96,0.00,CLR,SKC,0.00,WeatherDisplay:10.37,2013-08-21 04:22:00,
2013-08-21 00:27:00,66.6,65.4,28.80,SE,135,0.0,0.0,96,0.00,CLR,SKC,0.00,WeatherDisplay:10.37,2013-08-21 04:27:00,
2013-08-21 00:32:00,66.4,64.9,28.80,SE,135,0.0,0.0,95,0.00,CLR,SKC,0.00,WeatherDisplay:10.37,2013-08-21 04:32:00,
2013-08-21 00:37:00,66.4,64.9,28.80,SE,135,0.0,0.0,95,0.00,CLR,SKC,0.00,WeatherDisplay:10.37,2013-08-21 04:37:00,
2013-08-21 00:42:00,66.4,65.2,28.80,SE,135,0.0,0.0,96,0.00,CLR,SKC,0.00,WeatherDisplay:10.37,2013-08-21 04:42:00,
2013-08-21 00:47:00,66.2,65.0,28.79,SE,135,0.0,0.0,96,0.00,CLR,SKC,0.00,WeatherDisplay:10.37,2013-08-21 04:47:00,
2013-08-21 00:52:00,65.8,64.7,28.79,SE,135,0.0,0.0,96,0.00,CLR,SKC,0.00,WeatherDisplay:10.37,2013-08-21 04:52:00,
2013-08-21 00:57:00,65.7,64.5,28.79,SE,135,0.0,0.0,96,0.00,CLR,SKC,0.00,WeatherDisplay:10.37,2013-08-21 04:57:00,
2013-08-21 01:02:00,65.5,64.3,28.80,SE,135,0.0,0.0,96,0.00,CLR,SKC,0.00,WeatherDisplay:10.37,2013-08-21 05:02:00,
2013-08-21 01:07:00,65.5,64.3,28.80,SE,135,0.0,0.0,96,0.00,CLR,SKC,0.00,WeatherDisplay:10.37,2013-08-21 05:07:00,
2013-08-21 01:12:00,64.6,63.1,28.79,SE,135,0.0,0.0,95,0.00,CLR,SKC,0.00,WeatherDisplay:10.37,2013-08-21 05:12:00,
2013-08-21 01:17:00,64.4,63.2,28.79,SE,135,0.0,0.0,96,0.00,CLR,SKC,0.00,WeatherDisplay:10.37,2013-08-21 05:17:00,
2013-08-21 01:22:00,64.2,63.1,28.79,SE,135,0.0,0.0,96,0.00,CLR,SKC,0.00,WeatherDisplay:10.37,2013-08-21 05:22:00,
2013-08-21 01:27:00,64.0,62.9,28.79,SE,135,0.0,0.0,96,0.00,CLR,SKC,0.00,WeatherDisplay:10.37,2013-08-21 05:27:00,
2013-08-21 01:32:00,63.7,62.8,28.80,SE,135,0.0,0.0,97,0.00,CLR,SKC,0.00,WeatherDisplay:10.37,2013-08-21 05:32:00,
2013-08-21 01:37:00,63.3,62.5,28.80,SE,135,0.0,0.0,97,0.00,CLR,SKC,0.00,WeatherDisplay:10.37,2013-08-21 05:37:00,
2013-08-21 01:42:00,63.1,62.3,28.80,SE,135,0.0,0.0,97,0.00,CLR,SKC,0.00,WeatherDisplay:10.37,2013-08-21 05:42:00,
2013-08-21 01:47:00,63.0,62.4,28.79,SE,135,0.0,0.0,98,0.00,CLR,SKC,0.00,WeatherDisplay:10.37,2013-08-21 05:47:00,
2013-08-21 01:52:00,62.8,61.6,28.79,SE,135,0.0,0.0,96,0.00,CLR,SKC,0.00,WeatherDisplay:10.37,2013-08-21 05:52:00,
2013-08-21 01:57:00,62.6,61.4,28.80,SE,135,0.0,0.0,96,0.00,CLR,SKC,0.00,WeatherDisplay:10.37,2013-08-21 05:57:00,
2013-08-21 02:02:00,62.4,61.3,28.80,SE,135,0.0,0.0,96,0.00,CLR,SKC,0.00,WeatherDisplay:10.37,2013-08-21 06:02:00,
2013-08-21 02:07:00,62.4,61.6,28.80,SE,135,0.0,0.0,97,0.00,CLR,SKC,0.00,WeatherDisplay:10.37,2013-08-21 06:07:00,
2013-08-21 02:12:00,62.2,61.4,28.80,SE,135,0.0,0.0,97,0.00,CLR,SKC,0.00,WeatherDisplay:10.37,2013-08-21 06:12:00,
2013-08-21 02:17:00,62.1,61.2,28.80,SE,135,0.0,0.0,97,0.00,CLR,SKC,0.00,WeatherDisplay:10.37,2013-08-21 06:17:00,
2013-08-21 02:22:00,62.2,61.4,28.80,SE,135,0.0,0.0,97,0.00,CLR,SKC,0.00,WeatherDisplay:10.37,2013-08-21 06:22:00,
2013-08-21 02:27:00,62.2,61.7,28.80,SE,135,0.0,0.0,98,0.00,CLR,SKC,0.00,WeatherDisplay:10.37,2013-08-21 06:27:00,
2013-08-21 02:32:00,62.2,61.7,28.80,SE,135,0.0,0.0,98,0.00,CLR,SKC,0.00,WeatherDisplay:10.37,2013-08-21 06:32:00,
2013-08-21 02:37:00,62.1,61.8,28.80,East,90,0.0,0.0,99,0.00,CLR,SKC,0.00,WeatherDisplay:10.37,2013-08-21 06:37:00,
2013-08-21 02:42:00,62.1,61.8,28.80,East,90,0.0,0.0,99,0.00,CLR,SKC,0.00,WeatherDisplay:10.37,2013-08-21 06:42:00,
2013-08-21 02:47:00,61.9,61.6,28.80,East,90,0.0,0.0,99,0.00,CLR,SKC,0.00,WeatherDisplay:10.37,2013-08-21 06:47:00,
2013-08-21 02:52:00,61.7,61.7,28.80,East,90,0.0,0.0,100,0.00,CLR,SKC,0.00,WeatherDisplay:10.37,2013-08-21 06:52:00,
2013-08-21 02:57:00,61.5,61.5,28.79,East,90,0.0,0.0,100,0.00,CLR,SKC,0.00,WeatherDisplay:10.37,2013-08-21 06:57:00,
2013-08-21 03:02:00,61.5,61.5,28.79,East,90,0.0,0.0,100,0.00,CLR,SKC,0.00,WeatherDisplay:10.37,2013-08-21 07:02:00,
2013-08-21 03:07:00,61.5,61.5,28.79,East,90,0.0,0.0,100,0.00,CLR,SKC,0.00,WeatherDisplay:10.37,2013-08-21 07:07:00,
2013-08-21 03:12:00,61.2,61.2,28.79,East,90,0.0,0.0,100,0.00,CLR,SKC,0.00,WeatherDisplay:10.37,2013-08-21 07:12:00,
2013-08-21 03:17:00,61.0,61.0,28.79,East,90,0.0,0.0,100,0.00,CLR,SKC,0.00,WeatherDisplay:10.37,2013-08-21 07:17:00,
2013-08-21 03:22:00,61.0,61.0,28.79,East,90,0.0,0.0,100,0.00,CLR,SKC,0.00,WeatherDisplay:10.37,2013-08-21 07:22:00,
2013-08-21 03:27:00,61.0,61.0,28.79,East,90,0.0,0.0,100,0.00,CLR,SKC,0.00,WeatherDisplay:10.37,2013-08-21 07:27:00,
2013-08-21 03:32:00,61.0,61.0,28.78,East,90,0.0,0.0,100,0.00,CLR,SKC,0.00,WeatherDisplay:10.37,2013-08-21 07:32:00,
2013-08-21 03:37:00,60.8,60.8,28.79,East,90,0.0,0.0,100,0.00,CLR,SKC,0.00,WeatherDisplay:10.37,2013-08-21 07:37:00,
2013-08-21 03:42:00,61.0,61.0,28.79,SE,135,0.0,0.0,100,0.00,CLR,SKC,0.00,WeatherDisplay:10.37,2013-08-21 07:42:00,
2013-08-21 03:47:00,61.0,61.0,28.79,SE,135,0.0,0.0,100,0.00,CLR,SKC,0.00,WeatherDisplay:10.37,2013-08-21 07:47:00,
2013-08-21 03:52:00,61.0,61.0,28.79,NE,45,0.0,0.0,100,0.00,CLR,SKC,0.00,WeatherDisplay:10.37,2013-08-21 07:52:00,
2013-08-21 03:57:00,61.0,61.0,28.79,East,90,0.0,0.0,100,0.00,CLR,SKC,0.00,WeatherDisplay:10.37,2013-08-21 07:57:00,
2013-08-21 04:02:00,61.0,61.0,28.80,East,90,0.0,0.0,100,0.00,CLR,SKC,0.00,WeatherDisplay:10.37,2013-08-21 08:02:00,
2013-08-21 04:07:00,60.8,60.8,28.79,East,90,0.0,0.0,100,0.00,CLR,SKC,0.00,WeatherDisplay:10.37,2013-08-21 08:07:00,
2013-08-21 04:12:00,60.6,60.6,28.79,East,90,0.0,0.0,100,0.00,CLR,SKC,0.00,WeatherDisplay:10.37,2013-08-21 08:12:00,
2013-08-21 04:17:00,60.8,60.8,28.79,NE,45,0.0,0.0,100,0.00,CLR,SKC,0.00,WeatherDisplay:10.37,2013-08-21 08:17:00,
2013-08-21 04:22:00,60.6,60.6,28.79,NE,45,0.0,0.0,100,0.00,CLR,SKC,0.00,WeatherDisplay:10.37,2013-08-21 08:22:00,
2013-08-21 04:27:00,60.6,60.6,28.78,NE,45,0.0,0.0,100,0.00,CLR,SKC,0.00,WeatherDisplay:10.37,2013-08-21 08:27:00,
2013-08-21 04:32:00,60.4,60.4,28.79,NE,45,0.0,0.0,100,0.00,CLR,SKC,0.00,WeatherDisplay:10.37,2013-08-21 08:32:00,
2013-08-21 04:37:00,60.3,60.3,28.79,NE,45,0.0,0.0,100,0.00,CLR,SKC,0.00,WeatherDisplay:10.37,2013-08-21 08:37:00,
2013-08-21 04:42:00,60.3,60.3,28.78,NE,45,0.0,0.0,100,0.00,CLR,SKC,0.00,WeatherDisplay:10.37,2013-08-21 08:42:00,
2013-08-21 04:47:00,60.3,60.3,28.79,NE,45,0.0,0.0,100,0.00,CLR,SKC,0.00,WeatherDisplay:10.37,2013-08-21 08:47:00,
2013-08-21 04:52:00,60.3,60.3,28.79,NE,45,0.0,0.0,100,0.00,CLR,SKC,0.00,WeatherDisplay:10.37,2013-08-21 08:52:00,
2013-08-21 04:57:00,60.1,60.1,28.79,NE,45,0.0,0.0,100,0.00,CLR,SKC,0.00,WeatherDisplay:10.37,2013-08-21 08:57:00,
2013-08-21 05:02:00,60.1,60.1,28.79,NE,45,0.0,0.0,100,0.00,CLR,SKC,0.00,WeatherDisplay:10.37,2013-08-21 09:02:00,
2013-08-21 05:07:00,59.9,59.9,28.79,NE,45,0.0,0.0,100,0.00,CLR,SKC,0.00,WeatherDisplay:10.37,2013-08-21 09:07:00,
2013-08-21 05:12:00,59.9,59.9,28.79,NE,45,0.0,0.0,100,0.00,CLR,SKC,0.00,WeatherDisplay:10.37,2013-08-21 09:12:00,
2013-08-21 05:17:00,59.7,59.7,28.80,NE,45,0.0,0.0,100,0.00,CLR,SKC,0.00,WeatherDisplay:10.37,2013-08-21 09:17:00,
2013-08-21 05:22:00,59.7,59.7,28.79,NE,45,0.0,0.0,100,0.00,CLR,SKC,0.00,WeatherDisplay:10.37,2013-08-21 09:22:00,
2013-08-21 05:27:00,59.7,59.7,28.80,NE,45,0.0,0.0,100,0.00,CLR,SKC,0.00,WeatherDisplay:10.37,2013-08-21 09:27:00,
2013-08-21 05:32:00,59.5,59.5,28.79,NE,45,0.0,0.0,100,0.00,CLR,SKC,0.00,WeatherDisplay:10.37,2013-08-21 09:32:00,
2013-08-21 05:37:00,59.5,59.5,28.80,NE,45,0.0,0.0,100,0.00,CLR,SKC,0.00,WeatherDisplay:10.37,2013-08-21 09:37:00,
2013-08-21 05:42:00,59.4,59.4,28.79,NE,45,0.0,0.0,100,0.00,CLR,SKC,0.00,WeatherDisplay:10.37,2013-08-21 09:42:00,
2013-08-21 05:47:00,59.5,59.5,28.79,NE,45,0.0,0.0,100,0.00,CLR,SKC,0.00,WeatherDisplay:10.37,2013-08-21 09:47:00,
2013-08-21 05:52:00,59.7,59.7,28.80,NE,45,0.0,0.0,100,0.00,CLR,SKC,0.00,WeatherDisplay:10.37,2013-08-21 09:52:00,
2013-08-21 05:57:00,59.7,59.7,28.80,NE,45,0.0,0.0,100,0.00,CLR,SKC,0.00,WeatherDisplay:10.37,2013-08-21 09:57:00,
2013-08-21 06:02:00,59.7,59.7,28.80,NE,45,0.0,0.0,100,0.00,CLR,SKC,0.00,WeatherDisplay:10.37,2013-08-21 10:02:00,
2013-08-21 06:07:00,59.5,59.5,28.80,NE,45,0.0,0.0,100,0.00,CLR,SKC,0.00,WeatherDisplay:10.37,2013-08-21 10:07:00,
2013-08-21 06:12:00,59.5,59.5,28.80,NE,45,0.0,0.0,100,0.00,CLR,SKC,0.00,WeatherDisplay:10.37,2013-08-21 10:12:00,
2013-08-21 06:17:00,59.5,59.5,28.80,NE,45,0.0,0.0,100,0.00,CLR,SKC,0.00,WeatherDisplay:10.37,2013-08-21 10:17:00,
2013-08-21 06:22:00,59.7,59.7,28.80,NE,45,0.0,0.0,100,0.00,CLR,SKC,0.00,WeatherDisplay:10.37,2013-08-21 10:22:00,
2013-08-21 06:27:00,59.5,59.5,28.80,NE,45,0.0,0.0,100,0.00,CLR,SKC,0.00,WeatherDisplay:10.37,2013-08-21 10:27:00,
2013-08-21 06:32:00,59.5,59.5,28.80,NE,45,0.0,0.0,100,0.00,CLR,SKC,0.00,WeatherDisplay:10.37,2013-08-21 10:32:00,
2013-08-21 06:37:00,59.9,59.9,28.80,NE,45,0.0,0.0,100,0.00,CLR,SKC,0.00,WeatherDisplay:10.37,2013-08-21 10:37:00,
2013-08-21 06:42:00,60.1,59.8,28.80,NE,45,0.0,0.0,99,0.00,CLR,SKC,0.00,WeatherDisplay:10.37,2013-08-21 10:42:00,
2013-08-21 06:47:00,60.3,59.7,28.80,NE,45,1.2,1.2,98,0.00,CLR,SKC,0.00,WeatherDisplay:10.37,2013-08-21 10:47:00,
2013-08-21 06:52:00,60.3,59.7,28.80,NE,45,0.0,0.0,98,0.00,CLR,SKC,0.00,WeatherDisplay:10.37,2013-08-21 10:52:00,
2013-08-21 06:57:00,60.4,59.6,28.80,NE,45,0.0,0.0,97,0.00,CLR,SKC,0.00,WeatherDisplay:10.37,2013-08-21 10:57:00,
2013-08-21 07:02:00,60.6,59.8,28.80,NE,45,0.0,0.0,97,0.00,CLR,SKC,0.00,WeatherDisplay:10.37,2013-08-21 11:02:00,
2013-08-21 07:07:00,60.6,59.8,28.81,NE,45,0.0,0.0,97,0.00,CLR,SKC,0.00,WeatherDisplay:10.37,2013-08-21 11:07:00,
2013-08-21 07:12:00,60.6,58.6,28.81,NE,45,0.0,0.0,93,0.00,CLR,SKC,0.00,WeatherDisplay:10.37,2013-08-21 11:12:00,
2013-08-21 07:17:00,61.0,58.6,28.81,NW,315,0.0,0.0,92,0.00,CLR,SKC,0.00,WeatherDisplay:10.37,2013-08-21 11:17:00,
2013-08-21 07:22:00,61.2,58.2,28.81,North,0,0.0,0.0,90,0.00,CLR,SKC,0.00,WeatherDisplay:10.37,2013-08-21 11:22:00,
2013-08-21 07:27:00,61.5,58.2,28.81,NE,45,0.0,0.0,89,0.00,CLR,SKC,0.00,WeatherDisplay:10.37,2013-08-21 11:27:00,
2013-08-21 07:32:00,61.7,58.1,28.82,NE,45,0.0,0.0,88,0.00,CLR,SKC,0.00,WeatherDisplay:10.37,2013-08-21 11:32:00,
2013-08-21 07:37:00,61.9,57.6,28.81,NE,45,0.0,0.0,86,0.00,CLR,SKC,0.00,WeatherDisplay:10.37,2013-08-21 11:37:00,
2013-08-21 07:42:00,62.1,57.2,28.81,SE,135,0.0,0.0,84,0.00,CLR,SKC,0.00,WeatherDisplay:10.37,2013-08-21 11:42:00,
2013-08-21 07:47:00,62.2,56.3,28.82,NE,45,0.0,0.0,81,0.00,CLR,SKC,0.00,WeatherDisplay:10.37,2013-08-21 11:47:00,
2013-08-21 07:52:00,62.2,54.9,28.81,NE,45,0.0,0.0,77,0.00,CLR,SKC,0.00,WeatherDisplay:10.37,2013-08-21 11:52:00,
2013-08-21 07:57:00,62.4,54.0,28.81,NE,45,0.0,0.0,74,0.00,CLR,SKC,0.00,WeatherDisplay:10.37,2013-08-21 11:57:00,
2013-08-21 08:02:00,62.4,52.9,28.81,NE,45,0.0,0.0,71,0.00,CLR,SKC,0.00,WeatherDisplay:10.37,2013-08-21 12:02:00,
2013-08-21 08:07:00,62.4,52.9,28.81,NE,45,0.0,0.0,71,0.00,CLR,SKC,0.00,WeatherDisplay:10.37,2013-08-21 12:07:00,
2013-08-21 08:12:00,62.8,50.8,28.82,NE,45,0.0,0.0,65,0.00,CLR,SKC,0.00,WeatherDisplay:10.37,2013-08-21 12:12:00,
2013-08-21 08:17:00,63.3,49.6,28.82,NE,45,0.0,0.0,61,0.00,CLR,SKC,0.00,WeatherDisplay:10.37,2013-08-21 12:17:00,
2013-08-21 08:22:00,63.5,48.5,28.82,NE,45,0.0,0.0,58,0.00,CLR,SKC,0.00,WeatherDisplay:10.37,2013-08-21 12:22:00,
2013-08-21 08:27:00,63.9,47.9,28.82,NE,45,0.0,0.0,56,0.00,CLR,SKC,0.00,WeatherDisplay:10.37,2013-08-21 12:27:00,
2013-08-21 08:32:00,64.2,46.7,28.82,NE,45,0.0,0.0,53,0.00,CLR,SKC,0.00,WeatherDisplay:10.37,2013-08-21 12:32:00,
2013-08-21 08:37:00,64.6,45.0,28.82,NE,45,0.0,0.0,49,0.00,CLR,SKC,0.00,WeatherDisplay:10.37,2013-08-21 12:37:00,
2013-08-21 08:42:00,65.1,43.8,28.82,NE,45,0.0,0.0,46,0.00,CLR,SKC,0.00,WeatherDisplay:10.37,2013-08-21 12:42:00,
2013-08-21 08:47:00,65.5,41.8,28.82,NE,45,1.2,3.1,42,0.00,CLR,SKC,0.00,WeatherDisplay:10.37,2013-08-21 12:47:00,
2013-08-21 08:52:00,65.8,40.8,28.82,North,0,3.5,3.5,40,0.00,CLR,SKC,0.00,WeatherDisplay:10.37,2013-08-21 12:52:00,
2013-08-21 08:57:00,66.2,39.8,28.82,NE,45,3.5,3.5,38,0.00,CLR,SKC,0.00,WeatherDisplay:10.37,2013-08-21 12:57:00,
2013-08-21 09:02:00,66.6,38.8,28.82,NE,45,3.5,3.5,36,0.00,CLR,SKC,0.00,WeatherDisplay:10.37,2013-08-21 13:02:00,
2013-08-21 09:07:00,67.3,37.2,28.82,NE,45,3.5,3.5,33,0.00,CLR,SKC,0.00,WeatherDisplay:10.37,2013-08-21 13:07:00,
2013-08-21 09:12:00,68.0,36.2,28.82,NE,45,3.5,3.5,31,0.00,CLR,SKC,0.00,WeatherDisplay:10.37,2013-08-21 13:12:00,
2013-08-21 09:17:00,68.4,36.5,28.82,NE,45,3.5,3.5,31,0.00,CLR,SKC,0.00,WeatherDisplay:10.37,2013-08-21 13:17:00,
2013-08-21 09:22:00,68.9,37.0,28.82,NE,45,2.3,2.3,31,0.00,CLR,SKC,0.00,WeatherDisplay:10.37,2013-08-21 13:22:00,
2013-08-21 09:27:00,69.6,37.6,28.82,NE,45,3.5,3.5,31,0.00,CLR,SKC,0.00,WeatherDisplay:10.37,2013-08-21 13:27:00,
2013-08-21 09:32:00,70.0,37.9,28.82,SE,135,1.2,1.6,31,0.00,CLR,SKC,0.00,WeatherDisplay:10.37,2013-08-21 13:32:00,
2013-08-21 09:37:00,70.7,38.6,28.82,North,0,3.5,3.5,31,0.00,CLR,SKC,0.00,WeatherDisplay:10.37,2013-08-21 13:37:00,
2013-08-21 09:42:00,70.9,38.7,28.82,NE,45,3.5,3.5,31,0.00,CLR,SKC,0.00,WeatherDisplay:10.37,2013-08-21 13:42:00,
2013-08-21 09:47:00,71.2,39.0,28.82,North,0,3.5,3.5,31,0.00,CLR,SKC,0.00,WeatherDisplay:10.37,2013-08-21 13:47:00,
2013-08-21 09:52:00,71.8,39.5,28.82,NE,45,4.6,4.6,31,0.00,CLR,SKC,0.00,WeatherDisplay:10.37,2013-08-21 13:52:00,
2013-08-21 09:57:00,72.1,39.8,28.82,NE,45,3.5,3.5,31,0.00,CLR,SKC,0.00,WeatherDisplay:10.37,2013-08-21 13:57:00,
2013-08-21 10:02:00,72.3,40.0,28.82,East,90,3.5,0.0,31,0.00,CLR,SKC,0.00,WeatherDisplay:10.37,2013-08-21 14:02:00,
2013-08-21 10:07:00,73.0,40.6,28.82,East,90,2.3,2.3,31,0.00,CLR,SKC,0.00,WeatherDisplay:10.37,2013-08-21 14:07:00,
2013-08-21 10:12:00,73.4,40.9,28.82,NE,45,4.6,4.6,31,0.00,CLR,SKC,0.00,WeatherDisplay:10.37,2013-08-21 14:12:00,
2013-08-21 10:17:00,74.1,41.5,28.82,North,0,5.8,0.0,31,0.00,CLR,SKC,0.00,WeatherDisplay:10.37,2013-08-21 14:17:00,
2013-08-21 10:22:00,74.5,41.9,28.82,East,90,3.5,0.0,31,0.00,CLR,SKC,0.00,WeatherDisplay:10.37,2013-08-21 14:22:00,
2013-08-21 10:27:00,76.1,43.3,28.82,South,180,2.3,2.3,31,0.00,CLR,SKC,0.00,WeatherDisplay:10.37,2013-08-21 14:27:00,
2013-08-21 10:32:00,78.1,45.0,28.82,NE,45,2.3,0.0,31,0.00,CLR,SKC,0.00,WeatherDisplay:10.37,2013-08-21 14:32:00,
2013-08-21 10:37:00,78.8,45.6,28.82,North,0,3.5,3.5,31,0.00,CLR,SKC,0.00,WeatherDisplay:10.37,2013-08-21 14:37:00,
2013-08-21 10:42:00,78.8,45.6,28.82,North,0,4.6,4.6,31,0.00,CLR,SKC,0.00,WeatherDisplay:10.37,2013-08-21 14:42:00,
2013-08-21 10:47:00,79.5,46.2,28.83,NW,315,2.3,2.3,31,0.00,CLR,SKC,0.00,WeatherDisplay:10.37,2013-08-21 14:47:00,
2013-08-21 10:52:00,80.2,46.9,28.83,NE,45,3.5,3.8,31,0.00,CLR,SKC,0.00,WeatherDisplay:10.37,2013-08-21 14:52:00,
2013-08-21 10:57:00,80.8,47.3,28.82,NE,45,3.5,3.5,31,0.00,CLR,SKC,0.00,WeatherDisplay:10.37,2013-08-21 14:57:00,
2013-08-21 11:02:00,80.8,47.3,28.82,NE,45,4.6,4.6,31,0.00,CLR,SKC,0.00,WeatherDisplay:10.37,2013-08-21 15:02:00,
2013-08-21 11:07:00,81.9,48.3,28.82,North,0,4.6,4.6,31,0.00,CLR,SKC,0.00,WeatherDisplay:10.37,2013-08-21 15:07:00,
2013-08-21 11:12:00,82.6,48.9,28.82,NE,45,3.5,3.5,31,0.00,CLR,SKC,0.00,WeatherDisplay:10.37,2013-08-21 15:12:00,
2013-08-21 11:17:00,82.6,48.9,28.83,NE,45,8.1,8.1,31,0.00,CLR,SKC,0.00,WeatherDisplay:10.37,2013-08-21 15:17:00,
2013-08-21 11:22:00,82.2,50.2,28.82,NE,45,5.8,5.8,33,0.00,CLR,SKC,0.00,WeatherDisplay:10.37,2013-08-21 15:22:00,
2013-08-21 11:27:00,82.4,55.7,28.83,North,0,5.8,5.8,40,0.00,CLR,SKC,0.00,WeatherDisplay:10.37,2013-08-21 15:27:00,
2013-08-21 11:32:00,82.4,55.7,28.82,NE,45,4.6,4.6,40,0.00,CLR,SKC,0.00,WeatherDisplay:10.37,2013-08-21 15:32:00,
2013-08-21 11:37:00,82.2,58.1,28.82,NE,45,5.8,5.8,44,0.00,CLR,SKC,0.00,WeatherDisplay:10.37,2013-08-21 15:37:00,
2013-08-21 11:42:00,82.9,59.4,28.82,NE,45,5.8,5.8,45,0.00,CLR,SKC,0.00,WeatherDisplay:10.37,2013-08-21 15:42:00,
2013-08-21 11:47:00,84.4,62.5,28.82,NE,45,1.2,0.0,48,0.00,CLR,SKC,0.00,WeatherDisplay:10.37,2013-08-21 15:47:00,
2013-08-21 11:52:00,84.9,63.0,28.82,North,0,5.8,5.8,48,0.00,CLR,SKC,0.00,WeatherDisplay:10.37,2013-08-21 15:52:00,
2013-08-21 11:57:00,83.8,65.4,28.81,West,270,5.8,5.8,54,0.00,CLR,SKC,0.00,WeatherDisplay:10.37,2013-08-21 15:57:00,
2013-08-21 12:02:00,83.8,66.5,28.81,NE,45,3.5,3.5,56,0.00,CLR,SKC,0.00,WeatherDisplay:10.37,2013-08-21 16:02:00,
2013-08-21 12:07:00,83.8,66.5,28.81,NE,45,3.5,3.5,56,0.00,CLR,SKC,0.00,WeatherDisplay:10.37,2013-08-21 16:07:00,
2013-08-21 12:12:00,84.0,67.1,28.81,East,90,3.5,3.5,57,0.00,CLR,SKC,0.00,WeatherDisplay:10.37,2013-08-21 16:12:00,
2013-08-21 12:17:00,85.3,67.8,28.80,NE,45,5.8,5.8,56,0.00,CLR,SKC,0.00,WeatherDisplay:10.37,2013-08-21 16:17:00,
2013-08-21 12:22:00,84.6,67.6,28.80,East,90,5.8,5.8,57,0.00,CLR,SKC,0.00,WeatherDisplay:10.37,2013-08-21 16:22:00,
2013-08-21 12:27:00,84.7,69.3,28.80,North,0,6.9,6.9,60,0.00,CLR,SKC,0.00,WeatherDisplay:10.37,2013-08-21 16:27:00,
2013-08-21 12:32:00,84.7,69.3,28.80,NE,45,4.5,4.5,60,0.00,CLR,SKC,0.00,WeatherDisplay:10.37,2013-08-21 16:32:00,
2013-08-21 12:37:00,84.2,69.8,28.80,East,90,6.9,6.9,62,0.00,CLR,SKC,0.00,WeatherDisplay:10.37,2013-08-21 16:37:00,
2013-08-21 12:42:00,84.9,70.4,28.80,West,270,6.9,6.9,62,0.00,CLR,SKC,0.00,WeatherDisplay:10.37,2013-08-21 16:42:00,
2013-08-21 12:47:00,84.9,71.8,28.80,NW,315,5.8,5.8,65,0.00,CLR,SKC,0.00,WeatherDisplay:10.37,2013-08-21 16:47:00,
2013-08-21 12:52:00,85.1,71.5,28.79,NW,315,3.5,3.5,64,0.00,CLR,SKC,0.00,WeatherDisplay:10.37,2013-08-21 16:52:00,
2013-08-21 12:57:00,86.4,71.8,28.79,NW,315,4.6,4.6,62,0.00,CLR,SKC,0.00,WeatherDisplay:10.37,2013-08-21 16:57:00,
2013-08-21 13:02:00,86.9,71.8,28.79,NW,315,3.5,3.5,61,0.00,CLR,SKC,0.00,WeatherDisplay:10.37,2013-08-21 17:02:00,
2013-08-21 13:07:00,88.5,73.3,28.79,NW,315,3.5,3.5,61,0.00,CLR,SKC,0.00,WeatherDisplay:10.37,2013-08-21 17:07:00,
2013-08-21 13:12:00,89.8,72.5,28.79,SE,135,3.5,3.8,57,0.00,CLR,SKC,0.00,WeatherDisplay:10.37,2013-08-21 17:12:00,
2013-08-21 13:17:00,88.9,72.2,28.79,East,90,3.5,3.5,58,0.00,CLR,SKC,0.00,WeatherDisplay:10.37,2013-08-21 17:17:00,
2013-08-21 13:22:00,88.2,72.0,28.79,NE,45,3.5,3.5,59,0.00,CLR,SKC,0.00,WeatherDisplay:10.37,2013-08-21 17:22:00,
2013-08-21 13:27:00,88.5,73.3,28.79,SE,135,3.5,3.5,61,0.00,CLR,SKC,0.00,WeatherDisplay:10.37,2013-08-21 17:27:00,
2013-08-21 13:32:00,89.2,73.5,28.78,WNW,292,4.6,0.0,60,0.00,CLR,SKC,0.00,WeatherDisplay:10.37,2013-08-21 17:32:00,
2013-08-21 13:37:00,89.4,72.7,28.78,East,90,5.8,5.8,58,0.00,CLR,SKC,0.00,WeatherDisplay:10.37,2013-08-21 17:37:00,
2013-08-21 13:42:00,89.4,72.7,28.78,SE,135,2.3,2.3,58,0.00,CLR,SKC,0.00,WeatherDisplay:10.37,2013-08-21 17:42:00,
2013-08-21 13:47:00,89.6,73.9,28.78,North,0,2.3,2.3,60,0.00,CLR,SKC,0.00,WeatherDisplay:10.37,2013-08-21 17:47:00,
2013-08-21 13:52:00,90.0,74.7,28.78,North,0,3.5,3.5,61,0.00,CLR,SKC,0.00,WeatherDisplay:10.37,2013-08-21 17:52:00,
2013-08-21 13:57:00,89.8,75.0,28.78,West,270,5.8,5.8,62,0.00,CLR,SKC,0.00,WeatherDisplay:10.37,2013-08-21 17:57:00,
2013-08-21 14:02:00,90.0,74.7,28.78,West,270,2.3,2.3,61,0.00,CLR,SKC,0.00,WeatherDisplay:10.37,2013-08-21 18:02:00,
2013-08-21 14:07:00,90.7,76.3,28.78,East,90,2.3,2.3,63,0.00,CLR,SKC,0.00,WeatherDisplay:10.37,2013-08-21 18:07:00,
2013-08-21 14:12:00,90.9,75.5,28.77,South,180,2.3,2.3,61,0.00,CLR,SKC,0.00,WeatherDisplay:10.37,2013-08-21 18:12:00,
2013-08-21 14:17:00,91.0,74.7,28.77,SE,135,2.3,2.3,59,0.00,CLR,SKC,0.00,WeatherDisplay:10.37,2013-08-21 18:17:00,
2013-08-21 14:22:00,91.2,75.4,28.77,South,180,2.3,2.3,60,0.00,CLR,SKC,0.00,WeatherDisplay:10.37,2013-08-21 18:22:00,
2013-08-21 14:27:00,91.2,75.4,28.77,NW,315,3.5,0.0,60,0.00,CLR,SKC,0.00,WeatherDisplay:10.37,2013-08-21 18:27:00,
2013-08-21 14:32:00,90.1,74.9,28.77,NW,315,5.8,0.0,61,0.00,CLR,SKC,0.00,WeatherDisplay:10.37,2013-08-21 18:32:00,
2013-08-21 14:37:00,90.1,75.8,28.77,South,180,3.5,3.5,63,0.00,CLR,SKC,0.00,WeatherDisplay:10.37,2013-08-21 18:37:00,
2013-08-21 14:42:00,90.1,75.4,28.76,South,180,2.3,2.3,62,0.00,CLR,SKC,0.00,WeatherDisplay:10.37,2013-08-21 18:42:00,
2013-08-21 14:47:00,89.4,74.7,28.76,NW,315,3.5,3.5,62,0.00,CLR,SKC,0.00,WeatherDisplay:10.37,2013-08-21 18:47:00,
2013-08-21 14:52:00,88.5,74.8,28.76,NW,315,2.3,3.1,64,0.00,CLR,SKC,0.00,WeatherDisplay:10.37,2013-08-21 18:52:00,
2013-08-21 14:57:00,87.3,73.6,28.76,South,180,3.5,3.5,64,0.00,CLR,SKC,0.00,WeatherDisplay:10.37,2013-08-21 18:57:00,
2013-08-21 15:02:00,87.4,74.2,28.76,South,180,3.5,3.5,65,0.00,CLR,SKC,0.00,WeatherDisplay:10.37,2013-08-21 19:02:00,
2013-08-21 15:07:00,87.4,74.2,28.76,South,180,3.5,3.5,65,0.00,CLR,SKC,0.00,WeatherDisplay:10.37,2013-08-21 19:07:00,
2013-08-21 15:12:00,87.8,74.6,28.75,North,0,3.5,3.5,65,0.00,CLR,SKC,0.00,WeatherDisplay:10.37,2013-08-21 19:12:00,
2013-08-21 15:17:00,88.0,74.3,28.75,North,6,2.3,2.3,64,0.00,CLR,SKC,0.00,WeatherDisplay:10.37,2013-08-21 19:17:00,
2013-08-21 15:22:00,87.8,74.6,28.75,South,180,2.3,0.0,65,0.00,CLR,SKC,0.00,WeatherDisplay:10.37,2013-08-21 19:22:00,
2013-08-21 15:27:00,88.0,74.7,28.75,SE,135,1.2,0.0,65,0.00,CLR,SKC,0.00,WeatherDisplay:10.37,2013-08-21 19:27:00,
2013-08-21 15:32:00,88.9,74.2,28.74,South,180,2.3,0.0,62,0.00,CLR,SKC,0.00,WeatherDisplay:10.37,2013-08-21 19:32:00,
2013-08-21 15:37:00,89.8,74.0,28.74,North,8,2.3,2.3,60,0.00,CLR,SKC,0.00,WeatherDisplay:10.37,2013-08-21 19:37:00,
2013-08-21 15:42:00,90.3,74.5,28.74,South,180,5.8,0.0,60,0.00,CLR,SKC,0.00,WeatherDisplay:10.37,2013-08-21 19:42:00,
2013-08-21 15:47:00,89.8,74.0,28.74,NNE,12,3.5,3.5,60,0.00,CLR,SKC,0.00,WeatherDisplay:10.37,2013-08-21 19:47:00,
2013-08-21 15:52:00,88.3,73.2,28.73,NW,315,5.8,5.8,61,0.00,CLR,SKC,0.00,WeatherDisplay:10.37,2013-08-21 19:52:00,
2013-08-21 15:57:00,87.1,71.5,28.73,SE,135,3.5,3.5,60,0.00,CLR,SKC,0.00,WeatherDisplay:10.37,2013-08-21 19:57:00,
2013-08-21 16:02:00,86.5,72.0,28.73,SSE,158,2.3,2.3,62,0.00,CLR,SKC,0.00,WeatherDisplay:10.37,2013-08-21 20:02:00,
2013-08-21 16:07:00,86.5,72.0,28.73,SSE,158,2.3,2.3,62,0.00,CLR,SKC,0.00,WeatherDisplay:10.37,2013-08-21 20:07:00,
2013-08-21 16:12:00,86.2,72.1,28.72,NW,315,4.6,4.6,63,0.00,CLR,SKC,0.00,WeatherDisplay:10.37,2013-08-21 20:12:00,
2013-08-21 16:17:00,85.5,72.3,28.72,SE,135,5.8,0.0,65,0.00,CLR,SKC,0.00,WeatherDisplay:10.37,2013-08-21 20:17:00,
2013-08-21 16:22:00,85.3,72.6,28.73,NNE,15,4.6,0.0,66,0.00,CLR,SKC,0.00,WeatherDisplay:10.37,2013-08-21 20:22:00,
2013-08-21 16:27:00,85.5,72.8,28.72,NW,315,2.3,0.0,66,0.00,CLR,SKC,0.00,WeatherDisplay:10.37,2013-08-21 20:27:00,
2013-08-21 16:32:00,85.3,72.6,28.72,West,270,4.6,4.6,66,0.00,CLR,SKC,0.00,WeatherDisplay:10.37,2013-08-21 20:32:00,
2013-08-21 16:37:00,85.3,73.1,28.72,West,270,3.5,3.5,67,0.00,CLR,SKC,0.00,WeatherDisplay:10.37,2013-08-21 20:37:00,
2013-08-21 16:42:00,85.3,73.5,28.72,South,180,2.3,0.0,68,0.00,CLR,SKC,0.00,WeatherDisplay:10.37,2013-08-21 20:42:00,
2013-08-21 16:47:00,85.3,73.5,28.72,West,270,2.3,0.0,68,0.00,CLR,SKC,0.00,WeatherDisplay:10.37,2013-08-21 20:47:00,
2013-08-21 16:52:00,85.3,73.5,28.72,NW,315,3.5,3.5,68,0.00,CLR,SKC,0.00,WeatherDisplay:10.37,2013-08-21 20:52:00,
2013-08-21 16:57:00,85.1,73.3,28.72,South,180,3.5,3.5,68,0.00,CLR,SKC,0.00,WeatherDisplay:10.37,2013-08-21 20:57:00,
2013-08-21 17:02:00,84.7,72.6,28.72,NW,315,3.5,3.5,67,0.00,CLR,SKC,0.00,WeatherDisplay:10.37,2013-08-21 21:02:00,
2013-08-21 17:07:00,84.6,72.8,28.72,SE,135,2.3,2.3,68,0.00,CLR,SKC,0.00,WeatherDisplay:10.37,2013-08-21 21:07:00,
2013-08-21 17:12:00,84.6,72.8,28.72,SE,135,1.2,0.0,68,0.00,CLR,SKC,0.00,WeatherDisplay:10.37,2013-08-21 21:12:00,
2013-08-21 17:17:00,84.9,72.7,28.72,NW,315,0.0,0.0,67,0.00,CLR,SKC,0.00,WeatherDisplay:10.37,2013-08-21 21:17:00,
2013-08-21 17:22:00,84.7,73.0,28.72,SE,135,3.5,3.5,68,0.00,CLR,SKC,0.00,WeatherDisplay:10.37,2013-08-21 21:22:00,
2013-08-21 17:27:00,84.4,73.1,28.72,South,180,1.2,1.2,69,0.00,CLR,SKC,0.00,WeatherDisplay:10.37,2013-08-21 21:27:00,
2013-08-21 17:32:00,84.6,73.7,28.72,SE,135,1.2,0.0,70,0.00,CLR,SKC,0.00,WeatherDisplay:10.37,2013-08-21 21:32:00,
2013-08-21 17:37:00,84.6,73.3,28.72,SE,135,0.0,1.6,69,0.00,CLR,SKC,0.00,WeatherDisplay:10.37,2013-08-21 21:37:00,
2013-08-21 17:42:00,84.0,73.2,28.72,SE,135,2.3,2.3,70,0.00,CLR,SKC,0.00,WeatherDisplay:10.37,2013-08-21 21:42:00,
2013-08-21 17:47:00,83.5,73.1,28.72,SE,135,3.5,3.5,71,0.00,CLR,SKC,0.00,WeatherDisplay:10.37,2013-08-21 21:47:00,
2013-08-21 17:52:00,82.8,73.2,28.72,South,180,2.3,0.0,73,0.00,CLR,SKC,0.00,WeatherDisplay:10.37,2013-08-21 21:52:00,
2013-08-21 17:57:00,82.4,73.3,28.71,South,180,3.5,0.0,74,0.00,CLR,SKC,0.00,WeatherDisplay:10.37,2013-08-21 21:57:00,
2013-08-21 18:02:00,82.0,72.9,28.71,SE,135,1.2,0.0,74,0.00,CLR,SKC,0.00,WeatherDisplay:10.37,2013-08-21 22:02:00,
2013-08-21 18:07:00,82.0,72.9,28.71,SE,135,1.2,0.0,74,0.00,CLR,SKC,0.00,WeatherDisplay:10.37,2013-08-21 22:07:00,
2013-08-21 18:12:00,81.9,73.2,28.71,SE,135,0.0,0.0,75,0.00,CLR,SKC,0.00,WeatherDisplay:10.37,2013-08-21 22:12:00,
2013-08-21 18:17:00,82.0,73.7,28.71,South,180,0.0,0.0,76,0.00,CLR,SKC,0.00,WeatherDisplay:10.37,2013-08-21 22:17:00,
2013-08-21 18:22:00,82.2,73.9,28.70,West,270,0.0,0.7,76,0.00,CLR,SKC,0.00,WeatherDisplay:10.37,2013-08-21 22:22:00,
2013-08-21 18:27:00,82.4,74.1,28.69,SE,135,0.0,0.0,76,0.00,CLR,SKC,0.00,WeatherDisplay:10.37,2013-08-21 22:27:00,
2013-08-21 18:32:00,82.4,74.1,28.69,SE,135,1.2,1.2,76,0.00,CLR,SKC,0.00,WeatherDisplay:10.37,2013-08-21 22:32:00,
2013-08-21 18:37:00,82.2,74.3,28.69,SE,135,1.2,0.0,77,0.00,CLR,SKC,0.00,WeatherDisplay:10.37,2013-08-21 22:37:00,
2013-08-21 18:42:00,82.0,74.1,28.69,SE,135,0.0,0.0,77,0.00,CLR,SKC,0.00,WeatherDisplay:10.37,2013-08-21 22:42:00,
2013-08-21 18:47:00,82.2,74.3,28.68,SE,135,0.0,0.0,77,0.00,CLR,SKC,0.00,WeatherDisplay:10.37,2013-08-21 22:47:00,
2013-08-21 18:52:00,81.9,73.9,28.69,SE,135,1.2,1.2,77,0.00,CLR,SKC,0.00,WeatherDisplay:10.37,2013-08-21 22:52:00,
2013-08-21 18:57:00,81.3,73.8,28.70,SE,135,2.3,2.3,78,0.00,CLR,SKC,0.00,WeatherDisplay:10.37,2013-08-21 22:57:00,
2013-08-21 19:02:00,81.1,74.4,28.71,SE,135,1.2,0.0,80,0.00,CLR,SKC,0.00,WeatherDisplay:10.37,2013-08-21 23:02:00,
2013-08-21 19:07:00,81.1,74.4,28.71,SE,135,1.2,0.0,80,0.00,CLR,SKC,0.00,WeatherDisplay:10.37,2013-08-21 23:07:00,
2013-08-21 19:12:00,80.4,73.7,28.71,South,180,0.0,0.0,80,0.00,CLR,SKC,0.00,WeatherDisplay:10.37,2013-08-21 23:12:00,
2013-08-21 19:17:00,80.1,73.3,28.71,South,180,1.2,1.6,80,0.00,CLR,SKC,0.00,WeatherDisplay:10.37,2013-08-21 23:17:00,
2013-08-21 19:22:00,79.9,73.9,28.71,South,180,2.3,2.3,82,0.00,CLR,SKC,0.00,WeatherDisplay:10.37,2013-08-21 23:22:00,
2013-08-21 19:27:00,79.5,73.5,28.71,SE,135,1.2,1.2,82,0.00,CLR,SKC,0.00,WeatherDisplay:10.37,2013-08-21 23:27:00,
2013-08-21 19:32:00,79.2,73.2,28.71,South,180,0.0,0.0,82,0.00,CLR,SKC,0.00,WeatherDisplay:10.37,2013-08-21 23:32:00,
2013-08-21 19:37:00,79.2,73.2,28.71,South,180,0.0,0.0,82,0.00,CLR,SKC,0.00,WeatherDisplay:10.37,2013-08-21 23:37:00,
2013-08-21 19:42:00,79.0,73.0,28.72,SE,135,1.2,0.0,82,0.00,CLR,SKC,0.00,WeatherDisplay:10.37,2013-08-21 23:42:00,
2013-08-21 19:47:00,79.0,73.0,28.72,SE,135,0.0,0.0,82,0.00,CLR,SKC,0.00,WeatherDisplay:10.37,2013-08-21 23:47:00,
2013-08-21 19:52:00,78.8,73.2,28.72,SE,135,2.3,0.0,83,0.00,CLR,SKC,0.00,WeatherDisplay:10.37,2013-08-21 23:52:00,
2013-08-21 19:57:00,78.6,73.0,28.72,SE,135,0.0,0.0,83,0.00,CLR,SKC,0.00,WeatherDisplay:10.37,2013-08-21 23:57:00,
2013-08-21 20:02:00,78.4,73.2,28.72,South,180,0.0,0.0,84,0.00,CLR,SKC,0.00,WeatherDisplay:10.37,2013-08-22 00:02:00,
2013-08-21 20:07:00,78.4,73.2,28.71,South,180,0.0,0.0,84,0.00,CLR,SKC,0.00,WeatherDisplay:10.37,2013-08-22 00:07:00,
2013-08-21 20:12:00,77.7,72.5,28.71,South,180,0.0,0.0,84,0.00,CLR,SKC,0.00,WeatherDisplay:10.37,2013-08-22 00:12:00,
2013-08-21 20:17:00,77.5,72.3,28.70,South,180,0.0,0.0,84,0.00,CLR,SKC,0.00,WeatherDisplay:10.37,2013-08-22 00:17:00,
2013-08-21 20:22:00,77.2,72.3,28.71,South,180,0.0,0.0,85,0.00,CLR,SKC,0.00,WeatherDisplay:10.37,2013-08-22 00:22:00,
2013-08-21 20:27:00,77.0,72.1,28.71,South,180,0.0,0.0,85,0.00,CLR,SKC,0.00,WeatherDisplay:10.37,2013-08-22 00:27:00,
2013-08-21 20:32:00,76.8,72.3,28.71,SE,135,0.0,0.0,86,0.00,CLR,SKC,0.00,WeatherDisplay:10.37,2013-08-22 00:32:00,
2013-08-21 20:37:00,76.6,72.1,28.71,SE,135,0.0,0.0,86,0.00,CLR,SKC,0.00,WeatherDisplay:10.37,2013-08-22 00:37:00,
2013-08-21 20:42:00,76.3,71.8,28.71,SE,135,0.0,0.0,86,0.00,CLR,SKC,0.00,WeatherDisplay:10.37,2013-08-22 00:42:00,
2013-08-21 20:47:00,76.1,72.3,28.71,SE,135,1.2,1.2,88,0.00,CLR,SKC,0.00,WeatherDisplay:10.37,2013-08-22 00:47:00,
2013-08-21 20:52:00,75.9,72.8,28.71,SE,135,3.5,3.5,90,0.00,CLR,SKC,0.00,WeatherDisplay:10.37,2013-08-22 00:52:00,
2013-08-21 20:57:00,75.6,72.4,28.71,South,180,0.0,0.0,90,0.00,CLR,SKC,0.00,WeatherDisplay:10.37,2013-08-22 00:57:00,
2013-08-21 21:02:00,75.6,72.7,28.71,South,180,3.5,3.5,91,0.00,CLR,SKC,0.00,WeatherDisplay:10.37,2013-08-22 01:02:00,
2013-08-21 21:07:00,75.6,72.7,28.71,South,180,3.5,3.5,91,0.00,CLR,SKC,0.00,WeatherDisplay:10.37,2013-08-22 01:07:00,
2013-08-21 21:12:00,75.0,72.9,28.71,North,0,3.5,3.5,93,0.00,CLR,SKC,0.00,WeatherDisplay:10.37,2013-08-22 01:12:00,
2013-08-21 21:17:00,74.7,72.5,28.71,SE,135,2.3,2.3,93,0.00,CLR,SKC,0.00,WeatherDisplay:10.37,2013-08-22 01:17:00,
2013-08-21 21:22:00,74.5,72.6,28.71,South,180,8.1,0.0,94,0.00,CLR,SKC,0.00,WeatherDisplay:10.37,2013-08-22 01:22:00,
2013-08-21 21:27:00,74.3,72.5,28.72,South,180,3.5,0.0,94,0.00,CLR,SKC,0.00,WeatherDisplay:10.37,2013-08-22 01:27:00,
2013-08-21 21:32:00,74.1,72.3,28.71,SE,135,3.5,3.5,94,0.00,CLR,SKC,0.00,WeatherDisplay:10.37,2013-08-22 01:32:00,
2013-08-21 21:37:00,73.9,71.8,28.72,SE,135,1.2,0.0,93,0.00,CLR,SKC,0.00,WeatherDisplay:10.37,2013-08-22 01:37:00,
2013-08-21 21:42:00,73.8,71.9,28.71,SE,135,1.6,1.6,94,0.00,CLR,SKC,0.00,WeatherDisplay:10.37,2013-08-22 01:42:00,
2013-08-21 21:47:00,73.6,71.7,28.70,East,90,2.3,2.3,94,0.00,CLR,SKC,0.00,WeatherDisplay:10.37,2013-08-22 01:47:00,
2013-08-21 21:52:00,73.4,71.6,28.71,South,180,2.3,0.0,94,0.00,CLR,SKC,0.00,WeatherDisplay:10.37,2013-08-22 01:52:00,
2013-08-21 21:57:00,73.4,71.6,28.71,SE,135,1.2,0.0,94,0.00,CLR,SKC,0.00,WeatherDisplay:10.37,2013-08-22 01:57:00,
2013-08-21 22:02:00,73.2,71.4,28.72,SE,135,1.2,0.0,94,0.00,CLR,SKC,0.00,WeatherDisplay:10.37,2013-08-22 02:02:00,
2013-08-21 22:07:00,73.0,71.2,28.72,SE,135,1.2,0.0,94,0.00,CLR,SKC,0.00,WeatherDisplay:10.37,2013-08-22 02:07:00,
2013-08-21 22:12:00,72.9,71.0,28.72,East,90,0.0,0.0,94,0.00,CLR,SKC,0.00,WeatherDisplay:10.37,2013-08-22 02:12:00,
2013-08-21 22:17:00,72.7,70.9,28.72,SE,135,1.2,0.0,94,0.00,CLR,SKC,0.00,WeatherDisplay:10.37,2013-08-22 02:17:00,
2013-08-21 22:22:00,72.7,70.9,28.72,North,11,0.0,0.0,94,0.00,CLR,SKC,0.00,WeatherDisplay:10.37,2013-08-22 02:22:00,
2013-08-21 22:27:00,72.5,70.7,28.72,South,180,0.0,0.0,94,0.00,CLR,SKC,0.00,WeatherDisplay:10.37,2013-08-22 02:27:00,
2013-08-21 22:32:00,72.5,70.7,28.72,South,180,0.0,0.0,94,0.00,CLR,SKC,0.00,WeatherDisplay:10.37,2013-08-22 02:32:00,
2013-08-21 22:37:00,72.3,70.5,28.72,SE,135,0.0,0.0,94,0.00,CLR,SKC,0.00,WeatherDisplay:10.37,2013-08-22 02:37:00,
2013-08-21 22:42:00,72.1,70.6,28.72,South,180,5.8,0.0,95,0.00,CLR,SKC,0.00,WeatherDisplay:10.37,2013-08-22 02:42:00,
2013-08-21 22:47:00,72.0,70.1,28.72,South,180,1.2,0.0,94,0.00,CLR,SKC,0.00,WeatherDisplay:10.37,2013-08-22 02:47:00,
2013-08-21 22:52:00,72.0,70.1,28.72,South,180,1.2,0.0,94,0.00,CLR,SKC,0.00,WeatherDisplay:10.37,2013-08-22 02:52:00,
2013-08-21 22:57:00,71.8,70.0,28.72,South,180,1.2,0.0,94,0.00,CLR,SKC,0.00,WeatherDisplay:10.37,2013-08-22 02:57:00,
2013-08-21 23:02:00,71.8,70.0,28.71,North,2,1.2,0.0,94,0.00,CLR,SKC,0.00,WeatherDisplay:10.37,2013-08-22 03:02:00,
2013-08-21 23:07:00,71.6,70.1,28.71,South,180,1.2,0.0,95,0.00,CLR,SKC,0.00,WeatherDisplay:10.37,2013-08-22 03:07:00,
2013-08-21 23:12:00,71.4,69.9,28.72,SE,135,0.0,0.0,95,0.00,CLR,SKC,0.00,WeatherDisplay:10.37,2013-08-22 03:12:00,
2013-08-21 23:17:00,71.2,69.7,28.71,SE,135,0.0,0.0,95,0.00,CLR,SKC,0.00,WeatherDisplay:10.37,2013-08-22 03:17:00,
2013-08-21 23:22:00,71.1,69.6,28.71,SE,135,0.0,0.0,95,0.00,CLR,SKC,0.00,WeatherDisplay:10.37,2013-08-22 03:22:00,
2013-08-21 23:27:00,71.1,69.6,28.72,SE,135,0.0,0.0,95,0.00,CLR,SKC,0.00,WeatherDisplay:10.37,2013-08-22 03:27:00,
2013-08-21 23:32:00,70.9,69.4,28.72,SE,135,0.0,0.0,95,0.00,CLR,SKC,0.00,WeatherDisplay:10.37,2013-08-22 03:32:00,
2013-08-21 23:37:00,70.7,69.2,28.72,SE,135,0.0,0.0,95,0.00,CLR,SKC,0.00,WeatherDisplay:10.37,2013-08-22 03:37:00,
2013-08-21 23:42:00,70.7,69.2,28.72,South,180,0.0,0.0,95,0.00,CLR,SKC,0.00,WeatherDisplay:10.37,2013-08-22 03:42:00,
2013-08-21 23:47:00,70.7,69.2,28.72,SE,135,0.0,0.7,95,0.00,CLR,SKC,0.00,WeatherDisplay:10.37,2013-08-22 03:47:00,
2013-08-21 23:52:00,70.5,69.0,28.72,SE,135,3.5,3.5,95,0.00,CLR,SKC,0.00,WeatherDisplay:10.37,2013-08-22 03:52:00,
2013-08-21 23:57:00,70.5,69.0,28.72,SE,135,3.5,0.0,95,0.00,CLR,SKC,0.00,WeatherDisplay:10.37,2013-08-22 03:57:00,